Alabama, NY

6:32 AM EDT on September 02, 2015 (GMT -0400)
Middleport | | Change Station
CLOSE
Current Station
Personal Weather Station
Location: Middleport, NY
Elevation: 636 ft
Nearby Weather Stations

Elev 636 ft 43.16 °N, 78.49 °W | Updated 14 seconds ago

Clear
Clear
66.0 °F
Feels Like 66.0 °F
N
0.3
Wind Variable Wind from SSW
Gusts 1.2 mph

Today
High -- | Low -- °F
--% Chance of Precip.
Yesterday
High -- | Low -- °F
Precip. -- in
6:38 AM 7:47 PM
Waning Gibbous, 81% visible
Pressure 30.04 in
Visibility 4.0 miles
Clouds Few 4000 ft
Few 30000 ft
Dew Point 65 °F
Humidity 98%
Rainfall 0.00 in
Snow Depth Not available.
UV 0 out of 12
Pollen 10.50 out of 12
Air Quality Not available.
Flu Activity Not available.
METAR KBUF 020954Z 19005KT 4SM BR FEW040 FEW300 19/18 A3004 RMK AO2 SLP171 T01940178
Pressure 30.04 in
Visibility 4.0 miles
Clouds Few 4000 ft
Few 30000 ft
Dew Point 65 °F
Humidity 98%
Rainfall 0.00 in
Snow Depth Not available.
UV 0 out of 12
Pollen 10.50 out of 12
Air Quality Not available.
Flu Activity Not available.
METAR KBUF 020954Z 19005KT 4SM BR FEW040 FEW300 19/18 A3004 RMK AO2 SLP171 T01940178

10-Day Weather Forecast

×

Almanac

Astronomy

Sep. 02, 2015 Rise Set
Actual Time
Civil Twilight
Nautical Twilight
Astronomical Twilight
Moon
Length of Visible Light
Length of Day
Tomorrow will be .
, % of the Moon is Illuminated

Today's Extremes

State Highs State Lows

Community

WunderPhotos

Upload Photos

1,851,734 photos uploaded!

WunderBlogs® & News

Nearby

Air Quality

  Air Quality AQ Index Pollutant
Not available.

Snow Depth

Station Depth Elevation

Earthquake Activity

City Distance Mag. Time & Date
Minimum magnitude displayed is 2.5.

Coastal Water Temperatures

Place Temperature

Stations

Nearby Weather Stations

Station Location Temp. Windchill Dew Point Humidity Wind Precip. Elev Updated Type